sensor_id;sensor_type;location;lat;lon;timestamp;temperature;humidity
23755;DHT22;12057;52.042;6.830;2022-08-05T00:04:16;18.50;99.90
23755;DHT22;12057;52.042;6.830;2022-08-05T00:09:17;18.40;99.90
23755;DHT22;12057;52.042;6.830;2022-08-05T00:14:18;18.40;99.90
23755;DHT22;12057;52.042;6.830;2022-08-05T00:19:19;18.30;99.90
23755;DHT22;12057;52.042;6.830;2022-08-05T00:24:20;18.10;99.90
23755;DHT22;12057;52.042;6.830;2022-08-05T00:29:21;18.20;99.90
23755;DHT22;12057;52.042;6.830;2022-08-05T00:34:22;18.30;99.90
23755;DHT22;12057;52.042;6.830;2022-08-05T00:39:22;18.20;99.90
23755;DHT22;12057;52.042;6.830;2022-08-05T00:44:23;18.20;99.90
23755;DHT22;12057;52.042;6.830;2022-08-05T00:49:24;18.20;99.90
23755;DHT22;12057;52.042;6.830;2022-08-05T00:54:25;18.10;99.90
23755;DHT22;12057;52.042;6.830;2022-08-05T00:59:26;17.90;99.90
23755;DHT22;12057;52.042;6.830;2022-08-05T01:04:26;18.00;99.90
23755;DHT22;12057;52.042;6.830;2022-08-05T01:09:27;17.80;99.90
23755;DHT22;12057;52.042;6.830;2022-08-05T01:14:56;17.70;99.90
23755;DHT22;12057;52.042;6.830;2022-08-05T01:31:26;17.80;99.90
23755;DHT22;12057;52.042;6.830;2022-08-05T01:36:33;17.80;99.90
23755;DHT22;12057;52.042;6.830;2022-08-05T01:41:35;17.70;99.90
23755;DHT22;12057;52.042;6.830;2022-08-05T01:46:38;17.70;99.90
23755;DHT22;12057;52.042;6.830;2022-08-05T01:51:40;17.60;99.90
23755;DHT22;12057;52.042;6.830;2022-08-05T01:56:43;17.50;99.90
23755;DHT22;12057;52.042;6.830;2022-08-05T02:01:45;17.40;99.90
23755;DHT22;12057;52.042;6.830;2022-08-05T02:06:47;17.40;99.90
23755;DHT22;12057;52.042;6.830;2022-08-05T02:12:02;17.60;99.90
23755;DHT22;12057;52.042;6.830;2022-08-05T02:17:17;17.60;99.90
23755;DHT22;12057;52.042;6.830;2022-08-05T02:22:27;17.40;99.90
23755;DHT22;12057;52.042;6.830;2022-08-05T02:27:31;17.30;99.90
23755;DHT22;12057;52.042;6.830;2022-08-05T02:32:34;17.20;99.90
23755;DHT22;12057;52.042;6.830;2022-08-05T02:37:37;17.20;99.90
23755;DHT22;12057;52.042;6.830;2022-08-05T02:42:39;17.20;99.90
23755;DHT22;12057;52.042;6.830;2022-08-05T02:47:41;17.30;99.90
23755;DHT22;12057;52.042;6.830;2022-08-05T02:52:44;17.30;99.90
23755;DHT22;12057;52.042;6.830;2022-08-05T02:57:46;17.40;99.90
23755;DHT22;12057;52.042;6.830;2022-08-05T03:02:48;17.40;99.90
23755;DHT22;12057;52.042;6.830;2022-08-05T03:07:50;17.50;99.90
23755;DHT22;12057;52.042;6.830;2022-08-05T03:12:51;17.50;99.90
23755;DHT22;12057;52.042;6.830;2022-08-05T03:17:53;17.50;99.90
23755;DHT22;12057;52.042;6.830;2022-08-05T03:22:54;17.50;99.90
23755;DHT22;12057;52.042;6.830;2022-08-05T03:27:56;17.30;99.90
23755;DHT22;12057;52.042;6.830;2022-08-05T03:33:01;17.10;99.90
23755;DHT22;12057;52.042;6.830;2022-08-05T03:38:02;16.90;99.90
23755;DHT22;12057;52.042;6.830;2022-08-05T03:43:03;16.90;99.90
23755;DHT22;12057;52.042;6.830;2022-08-05T03:48:04;16.90;99.90
23755;DHT22;12057;52.042;6.830;2022-08-05T03:58:31;16.80;99.90
23755;DHT22;12057;52.042;6.830;2022-08-05T04:03:34;16.70;99.90
23755;DHT22;12057;52.042;6.830;2022-08-05T04:08:37;16.90;99.90
23755;DHT22;12057;52.042;6.830;2022-08-05T04:13:39;16.80;99.90
23755;DHT22;12057;52.042;6.830;2022-08-05T04:18:40;16.70;99.90
23755;DHT22;12057;52.042;6.830;2022-08-05T04:23:44;16.70;99.90
23755;DHT22;12057;52.042;6.830;2022-08-05T04:28:45;16.80;99.90
23755;DHT22;12057;52.042;6.830;2022-08-05T04:33:46;16.80;99.90
23755;DHT22;12057;52.042;6.830;2022-08-05T04:38:47;16.80;99.90
23755;DHT22;12057;52.042;6.830;2022-08-05T04:43:48;16.90;99.90
23755;DHT22;12057;52.042;6.830;2022-08-05T04:48:49;16.70;99.90
23755;DHT22;12057;52.042;6.830;2022-08-05T04:53:49;16.80;99.90
23755;DHT22;12057;52.042;6.830;2022-08-05T04:58:51;16.80;99.90
23755;DHT22;12057;52.042;6.830;2022-08-05T05:03:52;16.80;99.90
23755;DHT22;12057;52.042;6.830;2022-08-05T05:08:52;16.80;99.90
23755;DHT22;12057;52.042;6.830;2022-08-05T05:13:53;16.80;99.90
23755;DHT22;12057;52.042;6.830;2022-08-05T05:18:54;16.80;99.90
23755;DHT22;12057;52.042;6.830;2022-08-05T05:23:54;16.80;99.90
23755;DHT22;12057;52.042;6.830;2022-08-05T05:28:55;16.80;99.90
23755;DHT22;12057;52.042;6.830;2022-08-05T05:33:56;16.70;99.90
23755;DHT22;12057;52.042;6.830;2022-08-05T05:38:57;16.60;99.90
23755;DHT22;12057;52.042;6.830;2022-08-05T05:43:58;16.60;99.90
23755;DHT22;12057;52.042;6.830;2022-08-05T05:48:59;16.50;99.90
23755;DHT22;12057;52.042;6.830;2022-08-05T05:53:59;16.40;99.90
23755;DHT22;12057;52.042;6.830;2022-08-05T05:59:02;16.30;99.90
23755;DHT22;12057;52.042;6.830;2022-08-05T06:04:03;16.30;99.90
23755;DHT22;12057;52.042;6.830;2022-08-05T06:09:05;16.30;99.90
23755;DHT22;12057;52.042;6.830;2022-08-05T06:14:06;16.30;99.90
23755;DHT22;12057;52.042;6.830;2022-08-05T06:19:07;16.30;99.90
23755;DHT22;12057;52.042;6.830;2022-08-05T06:24:08;16.20;99.90
23755;DHT22;12057;52.042;6.830;2022-08-05T06:29:09;16.20;99.90
23755;DHT22;12057;52.042;6.830;2022-08-05T06:34:09;16.30;99.90
23755;DHT22;12057;52.042;6.830;2022-08-05T06:39:10;16.10;99.90
23755;DHT22;12057;52.042;6.830;2022-08-05T06:44:11;16.20;99.90
23755;DHT22;12057;52.042;6.830;2022-08-05T06:49:12;16.40;99.90
23755;DHT22;12057;52.042;6.830;2022-08-05T06:54:13;16.40;99.90
23755;DHT22;12057;52.042;6.830;2022-08-05T06:59:13;16.40;99.90
23755;DHT22;12057;52.042;6.830;2022-08-05T07:04:14;16.40;99.90
23755;DHT22;12057;52.042;6.830;2022-08-05T07:09:15;16.40;99.90
23755;DHT22;12057;52.042;6.830;2022-08-05T07:14:17;16.40;99.90
23755;DHT22;12057;52.042;6.830;2022-08-05T07:19:53;16.30;99.90
23755;DHT22;12057;52.042;6.830;2022-08-05T07:24:58;16.30;99.90
23755;DHT22;12057;52.042;6.830;2022-08-05T07:29:59;16.40;99.90
23755;DHT22;12057;52.042;6.830;2022-08-05T07:34:59;16.50;99.90
23755;DHT22;12057;52.042;6.830;2022-08-05T07:40:00;16.50;99.90
23755;DHT22;12057;52.042;6.830;2022-08-05T07:45:01;16.80;99.90
23755;DHT22;12057;52.042;6.830;2022-08-05T07:50:02;16.80;99.90
23755;DHT22;12057;52.042;6.830;2022-08-05T07:55:04;16.80;99.90
23755;DHT22;12057;52.042;6.830;2022-08-05T08:00:06;16.80;99.90
23755;DHT22;12057;52.042;6.830;2022-08-05T08:05:07;16.80;99.90
23755;DHT22;12057;52.042;6.830;2022-08-05T08:10:08;16.90;99.90
23755;DHT22;12057;52.042;6.830;2022-08-05T08:15:10;17.00;99.90
23755;DHT22;12057;52.042;6.830;2022-08-05T08:20:10;17.10;99.90
23755;DHT22;12057;52.042;6.830;2022-08-05T08:25:11;17.20;99.90
23755;DHT22;12057;52.042;6.830;2022-08-05T08:30:13;17.30;99.90
23755;DHT22;12057;52.042;6.830;2022-08-05T08:35:14;17.60;99.90
23755;DHT22;12057;52.042;6.830;2022-08-05T08:40:14;17.80;99.90
23755;DHT22;12057;52.042;6.830;2022-08-05T08:45:15;17.90;99.90
23755;DHT22;12057;52.042;6.830;2022-08-05T08:50:19;18.00;99.90
23755;DHT22;12057;52.042;6.830;2022-08-05T08:55:20;18.30;99.90
23755;DHT22;12057;52.042;6.830;2022-08-05T09:00:21;18.50;99.90
23755;DHT22;12057;52.042;6.830;2022-08-05T09:05:22;18.70;99.90
23755;DHT22;12057;52.042;6.830;2022-08-05T09:10:23;18.70;99.90
23755;DHT22;12057;52.042;6.830;2022-08-05T09:15:24;18.80;99.90
23755;DHT22;12057;52.042;6.830;2022-08-05T09:20:25;19.00;99.90
23755;DHT22;12057;52.042;6.830;2022-08-05T09:25:26;19.00;99.90
23755;DHT22;12057;52.042;6.830;2022-08-05T09:30:27;18.90;99.90
23755;DHT22;12057;52.042;6.830;2022-08-05T09:35:28;19.10;99.90
23755;DHT22;12057;52.042;6.830;2022-08-05T09:45:39;19.50;99.90
23755;DHT22;12057;52.042;6.830;2022-08-05T09:50:40;19.70;99.90
23755;DHT22;12057;52.042;6.830;2022-08-05T09:55:41;19.90;99.90
23755;DHT22;12057;52.042;6.830;2022-08-05T10:01:00;19.80;99.90
23755;DHT22;12057;52.042;6.830;2022-08-05T10:06:02;19.80;99.90
23755;DHT22;12057;52.042;6.830;2022-08-05T10:11:14;19.70;99.90
23755;DHT22;12057;52.042;6.830;2022-08-05T10:21:28;21.20;99.90
23755;DHT22;12057;52.042;6.830;2022-08-05T10:26:29;21.90;99.90
23755;DHT22;12057;52.042;6.830;2022-08-05T10:31:31;22.10;99.90
23755;DHT22;12057;52.042;6.830;2022-08-05T10:36:35;22.20;99.90
23755;DHT22;12057;52.042;6.830;2022-08-05T10:41:45;22.00;99.90
23755;DHT22;12057;52.042;6.830;2022-08-05T10:51:53;21.50;99.90
23755;DHT22;12057;52.042;6.830;2022-08-05T10:56:57;21.10;99.90
23755;DHT22;12057;52.042;6.830;2022-08-05T11:02:08;20.80;99.90
23755;DHT22;12057;52.042;6.830;2022-08-05T11:07:09;20.80;99.90
23755;DHT22;12057;52.042;6.830;2022-08-05T11:17:50;21.90;99.90
23755;DHT22;12057;52.042;6.830;2022-08-05T11:22:51;22.00;99.90
23755;DHT22;12057;52.042;6.830;2022-08-05T11:27:52;21.90;99.90
23755;DHT22;12057;52.042;6.830;2022-08-05T11:33:25;22.40;99.90
23755;DHT22;12057;52.042;6.830;2022-08-05T11:43:51;23.10;99.90
23755;DHT22;12057;52.042;6.830;2022-08-05T11:48:53;22.20;99.90
23755;DHT22;12057;52.042;6.830;2022-08-05T11:53:55;21.50;99.90
23755;DHT22;12057;52.042;6.830;2022-08-05T11:58:59;21.20;99.90
23755;DHT22;12057;52.042;6.830;2022-08-05T12:03:59;21.10;99.90
23755;DHT22;12057;52.042;6.830;2022-08-05T12:09:02;21.50;99.90
23755;DHT22;12057;52.042;6.830;2022-08-05T12:14:06;23.00;99.90
23755;DHT22;12057;52.042;6.830;2022-08-05T12:19:09;23.80;99.90
23755;DHT22;12057;52.042;6.830;2022-08-05T12:24:17;23.90;99.90
23755;DHT22;12057;52.042;6.830;2022-08-05T12:29:20;23.90;99.90
23755;DHT22;12057;52.042;6.830;2022-08-05T12:34:39;23.60;99.90
23755;DHT22;12057;52.042;6.830;2022-08-05T12:39:42;24.20;96.70
23755;DHT22;12057;52.042;6.830;2022-08-05T12:44:44;24.30;95.40
23755;DHT22;12057;52.042;6.830;2022-08-05T12:49:47;23.80;95.90
23755;DHT22;12057;52.042;6.830;2022-08-05T12:54:50;23.10;99.10
23755;DHT22;12057;52.042;6.830;2022-08-05T12:59:54;23.90;95.80
23755;DHT22;12057;52.042;6.830;2022-08-05T13:04:55;24.00;99.40
23755;DHT22;12057;52.042;6.830;2022-08-05T13:09:57;24.20;94.20
23755;DHT22;12057;52.042;6.830;2022-08-05T13:15:00;24.20;91.40
23755;DHT22;12057;52.042;6.830;2022-08-05T13:20:14;24.00;94.30
23755;DHT22;12057;52.042;6.830;2022-08-05T13:25:16;24.20;90.70
23755;DHT22;12057;52.042;6.830;2022-08-05T13:30:19;24.20;85.60
23755;DHT22;12057;52.042;6.830;2022-08-05T13:35:21;24.30;80.60
23755;DHT22;12057;52.042;6.830;2022-08-05T13:40:22;24.10;79.90
23755;DHT22;12057;52.042;6.830;2022-08-05T13:45:23;24.30;82.50
23755;DHT22;12057;52.042;6.830;2022-08-05T13:50:24;24.10;81.10
23755;DHT22;12057;52.042;6.830;2022-08-05T13:55:25;23.10;78.90
23755;DHT22;12057;52.042;6.830;2022-08-05T14:00:26;23.20;78.60
23755;DHT22;12057;52.042;6.830;2022-08-05T14:05:27;23.70;82.30
23755;DHT22;12057;52.042;6.830;2022-08-05T14:10:28;23.90;84.10
23755;DHT22;12057;52.042;6.830;2022-08-05T14:15:28;24.00;78.40
23755;DHT22;12057;52.042;6.830;2022-08-05T14:20:30;24.30;85.10
23755;DHT22;12057;52.042;6.830;2022-08-05T14:25:31;24.50;86.20
23755;DHT22;12057;52.042;6.830;2022-08-05T14:30:31;24.40;77.30
23755;DHT22;12057;52.042;6.830;2022-08-05T14:35:32;24.20;78.30
23755;DHT22;12057;52.042;6.830;2022-08-05T14:40:33;23.50;75.80
23755;DHT22;12057;52.042;6.830;2022-08-05T14:45:34;23.20;86.00
23755;DHT22;12057;52.042;6.830;2022-08-05T14:50:35;23.20;84.30
23755;DHT22;12057;52.042;6.830;2022-08-05T14:55:35;22.80;83.20
23755;DHT22;12057;52.042;6.830;2022-08-05T15:00:36;22.40;84.40
23755;DHT22;12057;52.042;6.830;2022-08-05T15:05:37;22.00;76.10
23755;DHT22;12057;52.042;6.830;2022-08-05T15:10:38;21.70;81.80
23755;DHT22;12057;52.042;6.830;2022-08-05T15:15:42;21.40;83.20
23755;DHT22;12057;52.042;6.830;2022-08-05T15:20:43;21.10;81.50
23755;DHT22;12057;52.042;6.830;2022-08-05T15:25:44;21.10;86.80
23755;DHT22;12057;52.042;6.830;2022-08-05T15:30:45;21.50;87.90
23755;DHT22;12057;52.042;6.830;2022-08-05T15:35:46;22.10;84.80
23755;DHT22;12057;52.042;6.830;2022-08-05T15:40:47;22.30;89.90
23755;DHT22;12057;52.042;6.830;2022-08-05T15:45:48;22.50;84.10
23755;DHT22;12057;52.042;6.830;2022-08-05T15:50:48;22.30;85.60
23755;DHT22;12057;52.042;6.830;2022-08-05T15:55:49;21.90;83.60
23755;DHT22;12057;52.042;6.830;2022-08-05T16:00:50;21.90;81.70
23755;DHT22;12057;52.042;6.830;2022-08-05T16:05:51;21.80;83.20
23755;DHT22;12057;52.042;6.830;2022-08-05T16:10:52;21.80;78.00
23755;DHT22;12057;52.042;6.830;2022-08-05T16:15:56;21.90;80.90
23755;DHT22;12057;52.042;6.830;2022-08-05T16:20:57;21.90;82.90
23755;DHT22;12057;52.042;6.830;2022-08-05T16:26:06;21.90;86.70
23755;DHT22;12057;52.042;6.830;2022-08-05T16:31:07;21.80;86.00
23755;DHT22;12057;52.042;6.830;2022-08-05T16:36:08;21.80;88.70
23755;DHT22;12057;52.042;6.830;2022-08-05T16:41:09;21.40;86.00
23755;DHT22;12057;52.042;6.830;2022-08-05T16:46:10;21.10;86.30
23755;DHT22;12057;52.042;6.830;2022-08-05T16:51:14;20.90;88.90
23755;DHT22;12057;52.042;6.830;2022-08-05T16:56:15;20.70;90.60
23755;DHT22;12057;52.042;6.830;2022-08-05T17:01:17;20.50;93.40
23755;DHT22;12057;52.042;6.830;2022-08-05T17:06:18;20.50;93.00
23755;DHT22;12057;52.042;6.830;2022-08-05T17:11:19;20.30;93.10
23755;DHT22;12057;52.042;6.830;2022-08-05T17:16:19;20.20;92.40
23755;DHT22;12057;52.042;6.830;2022-08-05T17:21:20;20.20;93.40
23755;DHT22;12057;52.042;6.830;2022-08-05T17:26:21;20.00;93.60
23755;DHT22;12057;52.042;6.830;2022-08-05T17:31:22;20.00;94.00
23755;DHT22;12057;52.042;6.830;2022-08-05T17:36:23;20.00;94.20
23755;DHT22;12057;52.042;6.830;2022-08-05T17:41:24;19.90;94.40
23755;DHT22;12057;52.042;6.830;2022-08-05T17:46:26;19.90;94.40
23755;DHT22;12057;52.042;6.830;2022-08-05T17:51:27;19.70;94.90
23755;DHT22;12057;52.042;6.830;2022-08-05T17:56:27;19.60;95.20
23755;DHT22;12057;52.042;6.830;2022-08-05T18:01:28;19.50;96.30
23755;DHT22;12057;52.042;6.830;2022-08-05T18:06:29;19.30;97.00
23755;DHT22;12057;52.042;6.830;2022-08-05T18:11:30;19.30;96.90
23755;DHT22;12057;52.042;6.830;2022-08-05T18:16:35;19.20;97.30
23755;DHT22;12057;52.042;6.830;2022-08-05T18:21:35;19.20;96.90
23755;DHT22;12057;52.042;6.830;2022-08-05T18:26:36;19.10;97.80
23755;DHT22;12057;52.042;6.830;2022-08-05T18:31:37;18.90;97.10
23755;DHT22;12057;52.042;6.830;2022-08-05T18:36:38;18.80;97.20
23755;DHT22;12057;52.042;6.830;2022-08-05T18:41:39;18.60;97.60
23755;DHT22;12057;52.042;6.830;2022-08-05T18:46:39;18.50;97.60
23755;DHT22;12057;52.042;6.830;2022-08-05T18:51:43;18.40;99.10
23755;DHT22;12057;52.042;6.830;2022-08-05T18:57:02;18.20;99.90
23755;DHT22;12057;52.042;6.830;2022-08-05T19:02:03;18.10;99.90
23755;DHT22;12057;52.042;6.830;2022-08-05T19:07:04;17.90;99.90
23755;DHT22;12057;52.042;6.830;2022-08-05T19:12:05;17.80;99.90
23755;DHT22;12057;52.042;6.830;2022-08-05T19:17:06;17.70;99.90
23755;DHT22;12057;52.042;6.830;2022-08-05T19:22:08;17.50;99.90
23755;DHT22;12057;52.042;6.830;2022-08-05T19:27:09;17.50;99.90
23755;DHT22;12057;52.042;6.830;2022-08-05T19:32:10;17.30;99.90
23755;DHT22;12057;52.042;6.830;2022-08-05T19:37:11;17.20;99.90
23755;DHT22;12057;52.042;6.830;2022-08-05T19:42:12;17.10;99.90
23755;DHT22;12057;52.042;6.830;2022-08-05T19:47:13;16.90;99.90
23755;DHT22;12057;52.042;6.830;2022-08-05T19:52:14;16.80;99.90
23755;DHT22;12057;52.042;6.830;2022-08-05T19:57:15;16.60;99.90
23755;DHT22;12057;52.042;6.830;2022-08-05T20:02:16;16.60;99.90
23755;DHT22;12057;52.042;6.830;2022-08-05T20:07:17;16.50;99.90
23755;DHT22;12057;52.042;6.830;2022-08-05T20:12:18;16.50;99.90
23755;DHT22;12057;52.042;6.830;2022-08-05T20:17:19;16.30;99.90
23755;DHT22;12057;52.042;6.830;2022-08-05T20:22:20;16.20;99.90
23755;DHT22;12057;52.042;6.830;2022-08-05T20:27:21;16.10;99.90
23755;DHT22;12057;52.042;6.830;2022-08-05T20:32:25;15.90;99.90
23755;DHT22;12057;52.042;6.830;2022-08-05T20:37:26;15.80;99.90
23755;DHT22;12057;52.042;6.830;2022-08-05T20:42:27;15.60;99.90
23755;DHT22;12057;52.042;6.830;2022-08-05T20:47:28;15.50;99.90
23755;DHT22;12057;52.042;6.830;2022-08-05T20:52:29;15.40;99.90
23755;DHT22;12057;52.042;6.830;2022-08-05T20:57:36;15.30;99.90
23755;DHT22;12057;52.042;6.830;2022-08-05T21:02:37;15.20;99.90
23755;DHT22;12057;52.042;6.830;2022-08-05T21:07:37;15.10;99.90
23755;DHT22;12057;52.042;6.830;2022-08-05T21:12:38;15.10;99.90
23755;DHT22;12057;52.042;6.830;2022-08-05T21:17:39;15.00;99.90
23755;DHT22;12057;52.042;6.830;2022-08-05T21:22:40;14.90;99.90
23755;DHT22;12057;52.042;6.830;2022-08-05T21:27:41;14.70;99.90
23755;DHT22;12057;52.042;6.830;2022-08-05T21:32:41;14.50;99.90
23755;DHT22;12057;52.042;6.830;2022-08-05T21:37:42;14.30;99.90
23755;DHT22;12057;52.042;6.830;2022-08-05T21:42:43;14.30;99.90
23755;DHT22;12057;52.042;6.830;2022-08-05T21:47:44;14.20;99.90
23755;DHT22;12057;52.042;6.830;2022-08-05T21:52:45;14.10;99.90
23755;DHT22;12057;52.042;6.830;2022-08-05T21:57:46;14.10;99.90
23755;DHT22;12057;52.042;6.830;2022-08-05T22:02:46;14.00;99.90
23755;DHT22;12057;52.042;6.830;2022-08-05T22:07:47;13.80;99.90
23755;DHT22;12057;52.042;6.830;2022-08-05T22:12:48;13.60;99.90
23755;DHT22;12057;52.042;6.830;2022-08-05T22:17:49;13.50;99.90
23755;DHT22;12057;52.042;6.830;2022-08-05T22:22:50;13.60;99.90
23755;DHT22;12057;52.042;6.830;2022-08-05T22:28:10;13.50;99.90
23755;DHT22;12057;52.042;6.830;2022-08-05T22:33:14;13.40;99.90
23755;DHT22;12057;52.042;6.830;2022-08-05T22:38:15;13.30;99.90
23755;DHT22;12057;52.042;6.830;2022-08-05T22:43:16;13.30;99.90
23755;DHT22;12057;52.042;6.830;2022-08-05T22:48:17;13.20;99.90
23755;DHT22;12057;52.042;6.830;2022-08-05T22:53:18;13.10;99.90
23755;DHT22;12057;52.042;6.830;2022-08-05T22:58:19;13.10;99.90
23755;DHT22;12057;52.042;6.830;2022-08-05T23:03:19;12.90;99.90
23755;DHT22;12057;52.042;6.830;2022-08-05T23:08:21;12.80;99.90
23755;DHT22;12057;52.042;6.830;2022-08-05T23:13:22;12.90;99.90
23755;DHT22;12057;52.042;6.830;2022-08-05T23:18:23;12.80;99.90
23755;DHT22;12057;52.042;6.830;2022-08-05T23:23:23;12.70;99.90
23755;DHT22;12057;52.042;6.830;2022-08-05T23:28:25;12.50;99.90
23755;DHT22;12057;52.042;6.830;2022-08-05T23:33:25;12.50;99.90
23755;DHT22;12057;52.042;6.830;2022-08-05T23:38:29;12.60;99.90
23755;DHT22;12057;52.042;6.830;2022-08-05T23:43:31;12.40;99.90
23755;DHT22;12057;52.042;6.830;2022-08-05T23:48:31;12.40;99.90
23755;DHT22;12057;52.042;6.830;2022-08-05T23:53:32;12.30;99.90
23755;DHT22;12057;52.042;6.830;2022-08-05T23:58:33;12.30;99.90
